sensor_id;sensor_type;location;lat;lon;timestamp;P1;durP1;ratioP1;P2;durP2;ratioP2
5718;SDS011;2884;47.734;9.244;2023-12-04T00:00:07;36.23;;;17.33;;
5718;SDS011;2884;47.734;9.244;2023-12-04T00:02:33;31.95;;;15.98;;
5718;SDS011;2884;47.734;9.244;2023-12-04T00:04:59;28.60;;;14.17;;
5718;SDS011;2884;47.734;9.244;2023-12-04T00:07:24;45.93;;;20.00;;
5718;SDS011;2884;47.734;9.244;2023-12-04T00:09:50;30.13;;;14.90;;
5718;SDS011;2884;47.734;9.244;2023-12-04T00:12:15;30.97;;;15.53;;
5718;SDS011;2884;47.734;9.244;2023-12-04T00:14:41;53.07;;;20.13;;
5718;SDS011;2884;47.734;9.244;2023-12-04T00:17:06;56.40;;;22.40;;
5718;SDS011;2884;47.734;9.244;2023-12-04T00:19:32;68.23;;;24.10;;
5718;SDS011;2884;47.734;9.244;2023-12-04T00:21:58;65.73;;;24.87;;
5718;SDS011;2884;47.734;9.244;2023-12-04T00:24:23;107.77;;;34.80;;
5718;SDS011;2884;47.734;9.244;2023-12-04T00:26:49;36.57;;;18.67;;
5718;SDS011;2884;47.734;9.244;2023-12-04T00:29:14;36.47;;;16.90;;
5718;SDS011;2884;47.734;9.244;2023-12-04T00:31:40;30.73;;;15.00;;
5718;SDS011;2884;47.734;9.244;2023-12-04T00:34:05;25.77;;;14.33;;
5718;SDS011;2884;47.734;9.244;2023-12-04T00:36:31;27.20;;;13.63;;
5718;SDS011;2884;47.734;9.244;2023-12-04T00:38:56;33.90;;;15.70;;
5718;SDS011;2884;47.734;9.244;2023-12-04T00:41:22;53.30;;;21.70;;
5718;SDS011;2884;47.734;9.244;2023-12-04T00:43:48;37.00;;;17.90;;
5718;SDS011;2884;47.734;9.244;2023-12-04T00:46:13;35.10;;;18.10;;
5718;SDS011;2884;47.734;9.244;2023-12-04T00:48:39;34.83;;;16.87;;
5718;SDS011;2884;47.734;9.244;2023-12-04T00:51:07;37.28;;;17.35;;
5718;SDS011;2884;47.734;9.244;2023-12-04T00:53:33;29.43;;;15.80;;
5718;SDS011;2884;47.734;9.244;2023-12-04T00:55:58;31.10;;;17.53;;
5718;SDS011;2884;47.734;9.244;2023-12-04T00:58:26;33.70;;;16.45;;
5718;SDS011;2884;47.734;9.244;2023-12-04T01:00:51;28.27;;;15.83;;
5718;SDS011;2884;47.734;9.244;2023-12-04T01:03:17;34.37;;;17.47;;
5718;SDS011;2884;47.734;9.244;2023-12-04T01:05:43;30.83;;;14.17;;
5718;SDS011;2884;47.734;9.244;2023-12-04T01:08:08;23.70;;;13.90;;
5718;SDS011;2884;47.734;9.244;2023-12-04T01:10:34;23.47;;;13.83;;
5718;SDS011;2884;47.734;9.244;2023-12-04T01:12:59;28.00;;;14.90;;
5718;SDS011;2884;47.734;9.244;2023-12-04T01:15:25;27.57;;;15.13;;
5718;SDS011;2884;47.734;9.244;2023-12-04T01:17:51;23.40;;;13.23;;
5718;SDS011;2884;47.734;9.244;2023-12-04T01:20:16;27.70;;;15.10;;
5718;SDS011;2884;47.734;9.244;2023-12-04T01:22:43;31.43;;;15.93;;
5718;SDS011;2884;47.734;9.244;2023-12-04T01:25:08;29.70;;;14.60;;
5718;SDS011;2884;47.734;9.244;2023-12-04T01:27:35;21.10;;;11.40;;
5718;SDS011;2884;47.734;9.244;2023-12-04T01:30:03;22.83;;;12.95;;
5718;SDS011;2884;47.734;9.244;2023-12-04T01:32:30;24.58;;;12.60;;
5718;SDS011;2884;47.734;9.244;2023-12-04T01:34:56;22.90;;;12.32;;
5718;SDS011;2884;47.734;9.244;2023-12-04T01:37:21;23.20;;;12.93;;
5718;SDS011;2884;47.734;9.244;2023-12-04T01:39:47;24.33;;;12.90;;
5718;SDS011;2884;47.734;9.244;2023-12-04T01:42:12;21.70;;;12.23;;
5718;SDS011;2884;47.734;9.244;2023-12-04T01:44:38;26.90;;;12.70;;
5718;SDS011;2884;47.734;9.244;2023-12-04T01:47:03;25.13;;;12.63;;
5718;SDS011;2884;47.734;9.244;2023-12-04T01:49:29;28.90;;;12.67;;
5718;SDS011;2884;47.734;9.244;2023-12-04T01:51:55;24.37;;;12.40;;
5718;SDS011;2884;47.734;9.244;2023-12-04T01:54:21;23.00;;;12.18;;
5718;SDS011;2884;47.734;9.244;2023-12-04T01:56:47;24.23;;;12.17;;
5718;SDS011;2884;47.734;9.244;2023-12-04T01:59:13;23.73;;;12.67;;
5718;SDS011;2884;47.734;9.244;2023-12-04T02:01:38;23.50;;;11.67;;
5718;SDS011;2884;47.734;9.244;2023-12-04T02:04:05;24.20;;;12.43;;
5718;SDS011;2884;47.734;9.244;2023-12-04T02:06:31;25.27;;;13.47;;
5718;SDS011;2884;47.734;9.244;2023-12-04T02:08:57;28.60;;;14.00;;
5718;SDS011;2884;47.734;9.244;2023-12-04T02:11:23;23.33;;;12.70;;
5718;SDS011;2884;47.734;9.244;2023-12-04T02:13:48;27.30;;;13.10;;
5718;SDS011;2884;47.734;9.244;2023-12-04T02:16:14;25.67;;;12.30;;
5718;SDS011;2884;47.734;9.244;2023-12-04T02:18:42;27.92;;;14.60;;
5718;SDS011;2884;47.734;9.244;2023-12-04T02:21:08;21.20;;;11.70;;
5718;SDS011;2884;47.734;9.244;2023-12-04T02:23:34;24.30;;;13.40;;
5718;SDS011;2884;47.734;9.244;2023-12-04T02:26:01;32.07;;;14.90;;
5718;SDS011;2884;47.734;9.244;2023-12-04T02:28:32;25.98;;;13.27;;
5718;SDS011;2884;47.734;9.244;2023-12-04T02:30:58;26.73;;;13.38;;
5718;SDS011;2884;47.734;9.244;2023-12-04T02:33:25;26.63;;;13.05;;
5718;SDS011;2884;47.734;9.244;2023-12-04T02:35:51;26.52;;;13.13;;
5718;SDS011;2884;47.734;9.244;2023-12-04T02:38:17;25.93;;;12.73;;
5718;SDS011;2884;47.734;9.244;2023-12-04T02:40:43;28.65;;;14.23;;
5718;SDS011;2884;47.734;9.244;2023-12-04T02:43:08;24.60;;;13.17;;
5718;SDS011;2884;47.734;9.244;2023-12-04T02:45:34;30.07;;;13.67;;
5718;SDS011;2884;47.734;9.244;2023-12-04T02:48:00;25.57;;;13.20;;
5718;SDS011;2884;47.734;9.244;2023-12-04T02:50:25;23.67;;;13.30;;
5718;SDS011;2884;47.734;9.244;2023-12-04T02:52:51;27.60;;;14.07;;
5718;SDS011;2884;47.734;9.244;2023-12-04T02:55:16;28.83;;;13.60;;
5718;SDS011;2884;47.734;9.244;2023-12-04T02:57:42;27.23;;;12.07;;
5718;SDS011;2884;47.734;9.244;2023-12-04T03:00:07;29.40;;;13.70;;
5718;SDS011;2884;47.734;9.244;2023-12-04T03:02:37;28.67;;;14.35;;
5718;SDS011;2884;47.734;9.244;2023-12-04T03:05:03;28.17;;;12.97;;
5718;SDS011;2884;47.734;9.244;2023-12-04T03:07:28;23.65;;;12.32;;
5718;SDS011;2884;47.734;9.244;2023-12-04T03:09:54;18.97;;;11.50;;
5718;SDS011;2884;47.734;9.244;2023-12-04T03:12:19;25.47;;;12.93;;
5718;SDS011;2884;47.734;9.244;2023-12-04T03:14:45;23.93;;;12.30;;
5718;SDS011;2884;47.734;9.244;2023-12-04T03:17:11;23.87;;;12.00;;
5718;SDS011;2884;47.734;9.244;2023-12-04T03:19:36;24.70;;;12.60;;
5718;SDS011;2884;47.734;9.244;2023-12-04T03:22:02;24.00;;;12.90;;
5718;SDS011;2884;47.734;9.244;2023-12-04T03:24:27;26.43;;;12.70;;
5718;SDS011;2884;47.734;9.244;2023-12-04T03:26:53;23.03;;;12.50;;
5718;SDS011;2884;47.734;9.244;2023-12-04T03:29:19;20.33;;;11.18;;
5718;SDS011;2884;47.734;9.244;2023-12-04T03:31:45;24.17;;;12.40;;
5718;SDS011;2884;47.734;9.244;2023-12-04T03:34:10;24.10;;;13.10;;
5718;SDS011;2884;47.734;9.244;2023-12-04T03:36:36;22.00;;;12.97;;
5718;SDS011;2884;47.734;9.244;2023-12-04T03:39:04;25.27;;;13.05;;
5718;SDS011;2884;47.734;9.244;2023-12-04T03:41:30;26.20;;;13.20;;
5718;SDS011;2884;47.734;9.244;2023-12-04T03:43:55;24.30;;;12.83;;
5718;SDS011;2884;47.734;9.244;2023-12-04T03:46:21;25.73;;;13.70;;
5718;SDS011;2884;47.734;9.244;2023-12-04T03:48:46;25.47;;;13.77;;
5718;SDS011;2884;47.734;9.244;2023-12-04T03:51:12;20.10;;;10.83;;
5718;SDS011;2884;47.734;9.244;2023-12-04T03:53:37;20.53;;;11.20;;
5718;SDS011;2884;47.734;9.244;2023-12-04T03:56:03;22.77;;;11.87;;
5718;SDS011;2884;47.734;9.244;2023-12-04T03:58:29;22.23;;;11.65;;
5718;SDS011;2884;47.734;9.244;2023-12-04T04:00:55;25.40;;;12.60;;
5718;SDS011;2884;47.734;9.244;2023-12-04T04:03:20;26.27;;;14.80;;
5718;SDS011;2884;47.734;9.244;2023-12-04T04:05:46;28.50;;;14.30;;
5718;SDS011;2884;47.734;9.244;2023-12-04T04:08:11;22.83;;;13.03;;
5718;SDS011;2884;47.734;9.244;2023-12-04T04:10:37;25.77;;;12.33;;
5718;SDS011;2884;47.734;9.244;2023-12-04T04:13:02;20.37;;;11.80;;
5718;SDS011;2884;47.734;9.244;2023-12-04T04:15:28;21.40;;;11.97;;
5718;SDS011;2884;47.734;9.244;2023-12-04T04:17:53;26.40;;;11.90;;
5718;SDS011;2884;47.734;9.244;2023-12-04T04:20:19;22.03;;;12.13;;
5718;SDS011;2884;47.734;9.244;2023-12-04T04:22:47;23.60;;;11.25;;
5718;SDS011;2884;47.734;9.244;2023-12-04T04:25:13;20.55;;;11.85;;
5718;SDS011;2884;47.734;9.244;2023-12-04T04:27:38;23.07;;;12.20;;
5718;SDS011;2884;47.734;9.244;2023-12-04T04:30:04;24.80;;;13.10;;
5718;SDS011;2884;47.734;9.244;2023-12-04T04:32:30;22.23;;;11.63;;
5718;SDS011;2884;47.734;9.244;2023-12-04T04:34:56;23.70;;;12.33;;
5718;SDS011;2884;47.734;9.244;2023-12-04T04:37:21;26.07;;;13.03;;
5718;SDS011;2884;47.734;9.244;2023-12-04T04:39:47;27.90;;;14.20;;
5718;SDS011;2884;47.734;9.244;2023-12-04T04:42:13;25.87;;;13.33;;
5718;SDS011;2884;47.734;9.244;2023-12-04T04:44:39;24.92;;;13.30;;
5718;SDS011;2884;47.734;9.244;2023-12-04T04:47:05;22.47;;;11.87;;
5718;SDS011;2884;47.734;9.244;2023-12-04T04:49:30;22.67;;;12.33;;
5718;SDS011;2884;47.734;9.244;2023-12-04T04:51:56;23.27;;;12.53;;
5718;SDS011;2884;47.734;9.244;2023-12-04T04:54:21;28.70;;;12.50;;
5718;SDS011;2884;47.734;9.244;2023-12-04T04:56:47;25.50;;;12.43;;
5718;SDS011;2884;47.734;9.244;2023-12-04T04:59:12;26.53;;;12.40;;
5718;SDS011;2884;47.734;9.244;2023-12-04T05:01:38;22.67;;;12.37;;
5718;SDS011;2884;47.734;9.244;2023-12-04T05:04:03;25.87;;;13.07;;
5718;SDS011;2884;47.734;9.244;2023-12-04T05:06:29;31.77;;;13.57;;
5718;SDS011;2884;47.734;9.244;2023-12-04T05:08:55;28.20;;;14.27;;
5718;SDS011;2884;47.734;9.244;2023-12-04T05:11:21;29.83;;;13.70;;
5718;SDS011;2884;47.734;9.244;2023-12-04T05:13:46;26.60;;;13.60;;
5718;SDS011;2884;47.734;9.244;2023-12-04T05:16:12;25.73;;;11.93;;
5718;SDS011;2884;47.734;9.244;2023-12-04T05:18:38;23.90;;;12.63;;
5718;SDS011;2884;47.734;9.244;2023-12-04T05:21:07;23.17;;;11.80;;
5718;SDS011;2884;47.734;9.244;2023-12-04T05:23:39;27.25;;;13.65;;
5718;SDS011;2884;47.734;9.244;2023-12-04T05:26:05;28.38;;;14.38;;
5718;SDS011;2884;47.734;9.244;2023-12-04T05:28:32;22.45;;;12.27;;
5718;SDS011;2884;47.734;9.244;2023-12-04T05:30:57;23.17;;;13.10;;
5718;SDS011;2884;47.734;9.244;2023-12-04T05:33:23;25.23;;;13.03;;
5718;SDS011;2884;47.734;9.244;2023-12-04T05:35:51;28.48;;;13.98;;
5718;SDS011;2884;47.734;9.244;2023-12-04T05:38:17;25.73;;;13.18;;
5718;SDS011;2884;47.734;9.244;2023-12-04T05:40:43;27.87;;;13.43;;
5718;SDS011;2884;47.734;9.244;2023-12-04T05:43:09;29.40;;;12.25;;
5718;SDS011;2884;47.734;9.244;2023-12-04T05:45:34;26.07;;;12.60;;
5718;SDS011;2884;47.734;9.244;2023-12-04T05:48:00;23.67;;;12.80;;
5718;SDS011;2884;47.734;9.244;2023-12-04T05:50:26;29.53;;;13.50;;
5718;SDS011;2884;47.734;9.244;2023-12-04T05:52:51;23.90;;;12.20;;
5718;SDS011;2884;47.734;9.244;2023-12-04T05:55:17;29.23;;;12.07;;
5718;SDS011;2884;47.734;9.244;2023-12-04T05:57:43;27.73;;;14.43;;
5718;SDS011;2884;47.734;9.244;2023-12-04T06:00:15;30.48;;;14.13;;
5718;SDS011;2884;47.734;9.244;2023-12-04T06:02:41;28.52;;;14.63;;
5718;SDS011;2884;47.734;9.244;2023-12-04T06:05:07;28.80;;;13.25;;
5718;SDS011;2884;47.734;9.244;2023-12-04T06:07:33;25.50;;;12.93;;
5718;SDS011;2884;47.734;9.244;2023-12-04T06:09:59;25.67;;;12.80;;
5718;SDS011;2884;47.734;9.244;2023-12-04T06:12:27;25.42;;;13.63;;
5718;SDS011;2884;47.734;9.244;2023-12-04T06:14:53;24.27;;;12.70;;
5718;SDS011;2884;47.734;9.244;2023-12-04T06:17:18;28.30;;;14.03;;
5718;SDS011;2884;47.734;9.244;2023-12-04T06:19:45;27.40;;;13.47;;
5718;SDS011;2884;47.734;9.244;2023-12-04T06:22:11;28.27;;;13.40;;
5718;SDS011;2884;47.734;9.244;2023-12-04T06:24:40;30.60;;;13.32;;
5718;SDS011;2884;47.734;9.244;2023-12-04T06:27:06;29.52;;;13.65;;
5718;SDS011;2884;47.734;9.244;2023-12-04T06:29:34;27.40;;;13.13;;
5718;SDS011;2884;47.734;9.244;2023-12-04T06:32:00;28.02;;;13.65;;
5718;SDS011;2884;47.734;9.244;2023-12-04T06:34:26;27.85;;;13.93;;
5718;SDS011;2884;47.734;9.244;2023-12-04T06:36:52;26.17;;;13.33;;
5718;SDS011;2884;47.734;9.244;2023-12-04T06:39:21;23.33;;;12.52;;
5718;SDS011;2884;47.734;9.244;2023-12-04T06:41:47;29.15;;;13.73;;
5718;SDS011;2884;47.734;9.244;2023-12-04T06:44:13;26.85;;;12.98;;
5718;SDS011;2884;47.734;9.244;2023-12-04T06:46:39;24.57;;;13.03;;
5718;SDS011;2884;47.734;9.244;2023-12-04T06:49:06;26.40;;;14.60;;
5718;SDS011;2884;47.734;9.244;2023-12-04T06:51:33;26.30;;;13.27;;
5718;SDS011;2884;47.734;9.244;2023-12-04T06:54:00;23.92;;;13.50;;
5718;SDS011;2884;47.734;9.244;2023-12-04T06:56:26;23.70;;;13.13;;
5718;SDS011;2884;47.734;9.244;2023-12-04T06:58:51;25.30;;;13.57;;
5718;SDS011;2884;47.734;9.244;2023-12-04T07:01:17;29.37;;;14.10;;
5718;SDS011;2884;47.734;9.244;2023-12-04T07:03:42;30.57;;;14.40;;
5718;SDS011;2884;47.734;9.244;2023-12-04T07:06:08;28.00;;;13.33;;
5718;SDS011;2884;47.734;9.244;2023-12-04T07:08:33;27.73;;;13.63;;
5718;SDS011;2884;47.734;9.244;2023-12-04T07:10:59;32.67;;;15.00;;
5718;SDS011;2884;47.734;9.244;2023-12-04T07:13:25;27.27;;;13.87;;
5718;SDS011;2884;47.734;9.244;2023-12-04T07:15:50;29.07;;;14.70;;
5718;SDS011;2884;47.734;9.244;2023-12-04T07:18:16;29.05;;;14.88;;
5718;SDS011;2884;47.734;9.244;2023-12-04T07:20:42;35.13;;;15.33;;
5718;SDS011;2884;47.734;9.244;2023-12-04T07:23:07;34.70;;;15.50;;
5718;SDS011;2884;47.734;9.244;2023-12-04T07:25:33;26.43;;;14.37;;
5718;SDS011;2884;47.734;9.244;2023-12-04T07:27:59;30.73;;;14.60;;
5718;SDS011;2884;47.734;9.244;2023-12-04T07:30:24;32.53;;;14.87;;
5718;SDS011;2884;47.734;9.244;2023-12-04T07:32:51;34.97;;;16.13;;
5718;SDS011;2884;47.734;9.244;2023-12-04T07:35:17;33.23;;;15.00;;
5718;SDS011;2884;47.734;9.244;2023-12-04T07:37:43;31.85;;;15.02;;
5718;SDS011;2884;47.734;9.244;2023-12-04T07:40:09;34.25;;;15.00;;
5718;SDS011;2884;47.734;9.244;2023-12-04T07:42:36;28.10;;;13.93;;
5718;SDS011;2884;47.734;9.244;2023-12-04T07:45:01;32.33;;;14.80;;
5718;SDS011;2884;47.734;9.244;2023-12-04T07:47:28;28.08;;;15.10;;
5718;SDS011;2884;47.734;9.244;2023-12-04T07:49:53;30.43;;;15.10;;
5718;SDS011;2884;47.734;9.244;2023-12-04T07:52:19;33.07;;;15.90;;
5718;SDS011;2884;47.734;9.244;2023-12-04T07:54:44;27.90;;;14.30;;
5718;SDS011;2884;47.734;9.244;2023-12-04T07:57:10;27.90;;;14.30;;
5718;SDS011;2884;47.734;9.244;2023-12-04T07:59:35;29.27;;;14.53;;
5718;SDS011;2884;47.734;9.244;2023-12-04T08:02:01;27.60;;;13.83;;
5718;SDS011;2884;47.734;9.244;2023-12-04T08:04:27;33.47;;;17.50;;
5718;SDS011;2884;47.734;9.244;2023-12-04T08:06:52;37.80;;;17.00;;
5718;SDS011;2884;47.734;9.244;2023-12-04T08:09:18;34.47;;;16.07;;
5718;SDS011;2884;47.734;9.244;2023-12-04T08:11:44;32.30;;;15.70;;
5718;SDS011;2884;47.734;9.244;2023-12-04T08:14:09;35.60;;;16.80;;
5718;SDS011;2884;47.734;9.244;2023-12-04T08:16:35;33.80;;;15.77;;
5718;SDS011;2884;47.734;9.244;2023-12-04T08:19:00;26.33;;;15.70;;
5718;SDS011;2884;47.734;9.244;2023-12-04T08:21:26;30.70;;;14.53;;
5718;SDS011;2884;47.734;9.244;2023-12-04T08:23:51;37.00;;;15.63;;
5718;SDS011;2884;47.734;9.244;2023-12-04T08:26:24;30.58;;;15.18;;
5718;SDS011;2884;47.734;9.244;2023-12-04T08:28:50;33.95;;;16.10;;
5718;SDS011;2884;47.734;9.244;2023-12-04T08:31:16;30.17;;;14.90;;
5718;SDS011;2884;47.734;9.244;2023-12-04T08:33:42;36.20;;;17.37;;
5718;SDS011;2884;47.734;9.244;2023-12-04T08:36:08;31.10;;;16.00;;
5718;SDS011;2884;47.734;9.244;2023-12-04T08:38:34;41.15;;;16.70;;
5718;SDS011;2884;47.734;9.244;2023-12-04T08:40:59;34.97;;;16.13;;
5718;SDS011;2884;47.734;9.244;2023-12-04T08:43:25;34.07;;;16.53;;
5718;SDS011;2884;47.734;9.244;2023-12-04T08:45:51;33.37;;;15.40;;
5718;SDS011;2884;47.734;9.244;2023-12-04T08:48:16;34.67;;;15.60;;
5718;SDS011;2884;47.734;9.244;2023-12-04T08:50:42;32.80;;;14.93;;
5718;SDS011;2884;47.734;9.244;2023-12-04T08:53:08;33.23;;;15.77;;
5718;SDS011;2884;47.734;9.244;2023-12-04T08:55:33;34.80;;;16.63;;
5718;SDS011;2884;47.734;9.244;2023-12-04T08:57:59;35.73;;;17.03;;
5718;SDS011;2884;47.734;9.244;2023-12-04T09:00:24;41.07;;;17.67;;
5718;SDS011;2884;47.734;9.244;2023-12-04T09:02:50;31.80;;;15.57;;
5718;SDS011;2884;47.734;9.244;2023-12-04T09:05:16;45.13;;;19.33;;
5718;SDS011;2884;47.734;9.244;2023-12-04T09:07:41;42.03;;;17.83;;
5718;SDS011;2884;47.734;9.244;2023-12-04T09:10:07;34.70;;;15.90;;
5718;SDS011;2884;47.734;9.244;2023-12-04T09:12:32;38.07;;;17.33;;
5718;SDS011;2884;47.734;9.244;2023-12-04T09:15:00;40.47;;;18.02;;
5718;SDS011;2884;47.734;9.244;2023-12-04T09:17:27;36.85;;;16.80;;
5718;SDS011;2884;47.734;9.244;2023-12-04T09:19:53;35.53;;;15.85;;
5718;SDS011;2884;47.734;9.244;2023-12-04T09:22:18;37.83;;;17.70;;
5718;SDS011;2884;47.734;9.244;2023-12-04T09:24:44;35.93;;;17.13;;
5718;SDS011;2884;47.734;9.244;2023-12-04T09:27:10;47.97;;;21.03;;
5718;SDS011;2884;47.734;9.244;2023-12-04T09:29:35;46.83;;;21.00;;
5718;SDS011;2884;47.734;9.244;2023-12-04T09:32:01;62.80;;;25.90;;
5718;SDS011;2884;47.734;9.244;2023-12-04T09:34:26;58.53;;;24.63;;
5718;SDS011;2884;47.734;9.244;2023-12-04T09:36:52;51.13;;;21.33;;
5718;SDS011;2884;47.734;9.244;2023-12-04T09:39:17;34.90;;;16.23;;
5718;SDS011;2884;47.734;9.244;2023-12-04T09:41:43;38.27;;;16.80;;
5718;SDS011;2884;47.734;9.244;2023-12-04T09:44:10;39.90;;;15.82;;
5718;SDS011;2884;47.734;9.244;2023-12-04T09:46:35;29.37;;;14.97;;
5718;SDS011;2884;47.734;9.244;2023-12-04T09:49:01;29.80;;;14.87;;
5718;SDS011;2884;47.734;9.244;2023-12-04T09:51:27;34.97;;;16.63;;
5718;SDS011;2884;47.734;9.244;2023-12-04T09:53:53;34.80;;;17.43;;
5718;SDS011;2884;47.734;9.244;2023-12-04T09:56:20;32.55;;;15.50;;
5718;SDS011;2884;47.734;9.244;2023-12-04T09:58:47;43.72;;;18.90;;
5718;SDS011;2884;47.734;9.244;2023-12-04T10:01:15;33.22;;;15.98;;
5718;SDS011;2884;47.734;9.244;2023-12-04T10:03:41;36.60;;;18.23;;
5718;SDS011;2884;47.734;9.244;2023-12-04T10:06:07;33.00;;;18.07;;
5718;SDS011;2884;47.734;9.244;2023-12-04T10:08:33;31.55;;;16.25;;
5718;SDS011;2884;47.734;9.244;2023-12-04T10:10:58;39.30;;;17.00;;
5718;SDS011;2884;47.734;9.244;2023-12-04T10:13:24;39.25;;;16.35;;
5718;SDS011;2884;47.734;9.244;2023-12-04T10:15:50;37.80;;;17.70;;
5718;SDS011;2884;47.734;9.244;2023-12-04T10:18:30;35.03;;;16.60;;
5718;SDS011;2884;47.734;9.244;2023-12-04T10:20:57;35.30;;;16.38;;
5718;SDS011;2884;47.734;9.244;2023-12-04T10:23:23;35.00;;;15.68;;
5718;SDS011;2884;47.734;9.244;2023-12-04T10:26:05;33.13;;;15.70;;
5718;SDS011;2884;47.734;9.244;2023-12-04T10:28:32;31.95;;;16.05;;
5718;SDS011;2884;47.734;9.244;2023-12-04T10:30:57;31.20;;;14.77;;
5718;SDS011;2884;47.734;9.244;2023-12-04T10:33:24;31.90;;;16.13;;
5718;SDS011;2884;47.734;9.244;2023-12-04T10:35:52;30.25;;;15.48;;
5718;SDS011;2884;47.734;9.244;2023-12-04T10:38:17;34.50;;;17.40;;
5718;SDS011;2884;47.734;9.244;2023-12-04T10:40:44;30.20;;;14.98;;
5718;SDS011;2884;47.734;9.244;2023-12-04T10:43:10;33.30;;;16.20;;
5718;SDS011;2884;47.734;9.244;2023-12-04T10:45:46;37.33;;;16.95;;
5718;SDS011;2884;47.734;9.244;2023-12-04T10:48:12;32.05;;;16.58;;
5718;SDS011;2884;47.734;9.244;2023-12-04T10:50:39;31.25;;;16.13;;
5718;SDS011;2884;47.734;9.244;2023-12-04T10:53:06;36.03;;;16.70;;
5718;SDS011;2884;47.734;9.244;2023-12-04T10:55:32;29.95;;;15.57;;
5718;SDS011;2884;47.734;9.244;2023-12-04T10:57:59;37.93;;;15.83;;
5718;SDS011;2884;47.734;9.244;2023-12-04T11:00:30;39.75;;;17.75;;
5718;SDS011;2884;47.734;9.244;2023-12-04T11:02:57;34.53;;;16.38;;
5718;SDS011;2884;47.734;9.244;2023-12-04T11:05:30;34.40;;;16.20;;
5718;SDS011;2884;47.734;9.244;2023-12-04T11:07:57;34.28;;;16.55;;
5718;SDS011;2884;47.734;9.244;2023-12-04T11:10:26;29.80;;;15.95;;
5718;SDS011;2884;47.734;9.244;2023-12-04T11:12:57;32.53;;;16.25;;
5718;SDS011;2884;47.734;9.244;2023-12-04T11:15:29;35.25;;;16.70;;
5718;SDS011;2884;47.734;9.244;2023-12-04T11:17:58;46.50;;;18.80;;
5718;SDS011;2884;47.734;9.244;2023-12-04T11:20:24;41.42;;;18.20;;
5718;SDS011;2884;47.734;9.244;2023-12-04T11:22:53;34.47;;;16.90;;
5718;SDS011;2884;47.734;9.244;2023-12-04T11:25:19;33.58;;;15.23;;
5718;SDS011;2884;47.734;9.244;2023-12-04T11:27:44;34.27;;;17.03;;
5718;SDS011;2884;47.734;9.244;2023-12-04T11:30:10;37.00;;;16.10;;
5718;SDS011;2884;47.734;9.244;2023-12-04T11:32:48;37.72;;;16.88;;
5718;SDS011;2884;47.734;9.244;2023-12-04T11:35:14;40.47;;;18.35;;
5718;SDS011;2884;47.734;9.244;2023-12-04T11:37:41;30.23;;;14.73;;
5718;SDS011;2884;47.734;9.244;2023-12-04T11:40:10;36.75;;;16.67;;
5718;SDS011;2884;47.734;9.244;2023-12-04T11:42:37;35.85;;;16.98;;
5718;SDS011;2884;47.734;9.244;2023-12-04T11:45:04;47.78;;;19.77;;
5718;SDS011;2884;47.734;9.244;2023-12-04T11:47:31;74.95;;;27.55;;
5718;SDS011;2884;47.734;9.244;2023-12-04T11:50:14;59.55;;;23.60;;
5718;SDS011;2884;47.734;9.244;2023-12-04T11:52:39;31.97;;;17.03;;
5718;SDS011;2884;47.734;9.244;2023-12-04T11:55:05;35.27;;;16.53;;
5718;SDS011;2884;47.734;9.244;2023-12-04T11:57:35;33.08;;;16.02;;
5718;SDS011;2884;47.734;9.244;2023-12-04T12:02:47;33.05;;;16.30;;
5718;SDS011;2884;47.734;9.244;2023-12-04T12:05:14;34.58;;;16.05;;
5718;SDS011;2884;47.734;9.244;2023-12-04T12:07:40;34.83;;;15.37;;
5718;SDS011;2884;47.734;9.244;2023-12-04T12:10:05;35.50;;;16.10;;
5718;SDS011;2884;47.734;9.244;2023-12-04T12:12:31;34.33;;;17.07;;
5718;SDS011;2884;47.734;9.244;2023-12-04T12:15:01;33.60;;;15.50;;
5718;SDS011;2884;47.734;9.244;2023-12-04T12:17:26;38.67;;;17.47;;
5718;SDS011;2884;47.734;9.244;2023-12-04T12:19:52;39.70;;;17.30;;
5718;SDS011;2884;47.734;9.244;2023-12-04T12:22:19;40.08;;;16.88;;
5718;SDS011;2884;47.734;9.244;2023-12-04T12:24:45;34.43;;;15.37;;
5718;SDS011;2884;47.734;9.244;2023-12-04T12:27:10;35.67;;;16.30;;
5718;SDS011;2884;47.734;9.244;2023-12-04T12:29:36;35.77;;;17.23;;
5718;SDS011;2884;47.734;9.244;2023-12-04T12:32:01;30.97;;;14.47;;
5718;SDS011;2884;47.734;9.244;2023-12-04T12:34:28;38.28;;;16.90;;
5718;SDS011;2884;47.734;9.244;2023-12-04T12:36:53;34.73;;;16.07;;
5718;SDS011;2884;47.734;9.244;2023-12-04T12:39:19;38.70;;;18.83;;
5718;SDS011;2884;47.734;9.244;2023-12-04T12:41:50;33.77;;;15.13;;
5718;SDS011;2884;47.734;9.244;2023-12-04T12:44:16;34.42;;;15.48;;
5718;SDS011;2884;47.734;9.244;2023-12-04T12:46:46;31.45;;;14.90;;
5718;SDS011;2884;47.734;9.244;2023-12-04T12:49:13;35.35;;;15.18;;
5718;SDS011;2884;47.734;9.244;2023-12-04T12:51:39;37.28;;;16.35;;
5718;SDS011;2884;47.734;9.244;2023-12-04T12:54:05;28.00;;;13.63;;
5718;SDS011;2884;47.734;9.244;2023-12-04T12:56:31;32.27;;;15.10;;
5718;SDS011;2884;47.734;9.244;2023-12-04T12:58:56;38.07;;;15.03;;
5718;SDS011;2884;47.734;9.244;2023-12-04T13:01:23;40.65;;;15.40;;
5718;SDS011;2884;47.734;9.244;2023-12-04T13:03:50;41.25;;;16.98;;
5718;SDS011;2884;47.734;9.244;2023-12-04T13:06:15;37.80;;;16.10;;
5718;SDS011;2884;47.734;9.244;2023-12-04T13:08:43;34.05;;;16.02;;
5718;SDS011;2884;47.734;9.244;2023-12-04T13:11:08;39.13;;;17.00;;
5718;SDS011;2884;47.734;9.244;2023-12-04T13:13:34;40.20;;;17.90;;
5718;SDS011;2884;47.734;9.244;2023-12-04T13:15:59;37.63;;;16.50;;
5718;SDS011;2884;47.734;9.244;2023-12-04T13:18:25;34.20;;;16.57;;
5718;SDS011;2884;47.734;9.244;2023-12-04T13:20:50;32.67;;;15.40;;
5718;SDS011;2884;47.734;9.244;2023-12-04T13:23:16;31.80;;;15.20;;
5718;SDS011;2884;47.734;9.244;2023-12-04T13:25:41;36.27;;;16.00;;
5718;SDS011;2884;47.734;9.244;2023-12-04T13:28:08;34.80;;;15.70;;
5718;SDS011;2884;47.734;9.244;2023-12-04T13:30:34;33.37;;;17.20;;
5718;SDS011;2884;47.734;9.244;2023-12-04T13:33:00;35.93;;;16.63;;
5718;SDS011;2884;47.734;9.244;2023-12-04T13:35:26;40.25;;;18.30;;
5718;SDS011;2884;47.734;9.244;2023-12-04T13:37:51;37.00;;;16.17;;
5718;SDS011;2884;47.734;9.244;2023-12-04T13:40:20;39.63;;;17.35;;
5718;SDS011;2884;47.734;9.244;2023-12-04T13:42:46;36.90;;;17.13;;
5718;SDS011;2884;47.734;9.244;2023-12-04T13:45:30;39.55;;;16.88;;
5718;SDS011;2884;47.734;9.244;2023-12-04T13:47:56;42.75;;;16.90;;
5718;SDS011;2884;47.734;9.244;2023-12-04T13:50:23;34.45;;;15.65;;
5718;SDS011;2884;47.734;9.244;2023-12-04T13:52:48;32.60;;;16.50;;
5718;SDS011;2884;47.734;9.244;2023-12-04T13:55:20;33.90;;;16.17;;
5718;SDS011;2884;47.734;9.244;2023-12-04T13:57:56;32.38;;;15.65;;
5718;SDS011;2884;47.734;9.244;2023-12-04T14:00:24;43.08;;;18.00;;
5718;SDS011;2884;47.734;9.244;2023-12-04T14:02:50;39.78;;;17.13;;
5718;SDS011;2884;47.734;9.244;2023-12-04T14:05:25;34.60;;;15.38;;
5718;SDS011;2884;47.734;9.244;2023-12-04T14:07:51;34.30;;;16.63;;
5718;SDS011;2884;47.734;9.244;2023-12-04T14:10:16;34.80;;;18.00;;
5718;SDS011;2884;47.734;9.244;2023-12-04T14:12:42;35.30;;;16.80;;
5718;SDS011;2884;47.734;9.244;2023-12-04T14:15:08;32.47;;;15.23;;
5718;SDS011;2884;47.734;9.244;2023-12-04T14:17:34;33.72;;;16.20;;
5718;SDS011;2884;47.734;9.244;2023-12-04T14:20:00;34.47;;;16.60;;
5718;SDS011;2884;47.734;9.244;2023-12-04T14:22:25;35.33;;;15.53;;
5718;SDS011;2884;47.734;9.244;2023-12-04T14:24:51;34.87;;;15.47;;
5718;SDS011;2884;47.734;9.244;2023-12-04T14:27:17;35.33;;;16.90;;
5718;SDS011;2884;47.734;9.244;2023-12-04T14:29:43;34.05;;;16.42;;
5718;SDS011;2884;47.734;9.244;2023-12-04T14:32:09;33.35;;;16.30;;
5718;SDS011;2884;47.734;9.244;2023-12-04T14:34:35;40.80;;;17.30;;
5718;SDS011;2884;47.734;9.244;2023-12-04T14:37:01;38.83;;;17.27;;
5718;SDS011;2884;47.734;9.244;2023-12-04T14:39:26;42.27;;;18.07;;
5718;SDS011;2884;47.734;9.244;2023-12-04T14:41:52;38.92;;;16.95;;
5718;SDS011;2884;47.734;9.244;2023-12-04T14:44:17;42.23;;;16.80;;